Dodgeville, MI (49921)

1:53 PM EST on December 22, 2014 (GMT -0500)
Hancock: Sylvan Estates | Change Station
CLOSE
Current Station
Personal Weather Station
Location: Hancock, MI
Elevation: 917 ft
Nearby Weather Stations
Active Advisory: Special Statement

Elev 917 ft 47.14 °N, 88.60 °W | Updated 43 minutes ago

Overcast
Overcast
35.8 °F
Feels Like 32 °F
N
4.0
Wind Variable Wind from ENE
Gusts 11.0 mph

Today
High -- | Low -- °F
--% Chance of Precip.
Yesterday
High -- | Low -- °F
Precip. -- in
8:38 AM 5:07 PM
New Moon, 1% visible
Pressure 29.79 in
Visibility 3.0 miles
Clouds Scattered Clouds 800 ft
Overcast 1400 ft
Windchill 32 °F
Dew Point 34 °F
Humidity 95%
Rainfall 0.00 in
Snow Depth Not available.
UV 0 out of 12
Pollen .10 out of 12
Air Quality Not available.
Flu Activity Not available.
METAR KCMX 221753Z AUTO 12006KT 3SM BR SCT008 OVC014 01/00 A2979

More Conditions Fewer Conditions

Pressure 29.79 in
Visibility 3.0 miles
Clouds Scattered Clouds 800 ft
Overcast 1400 ft
Windchill 32 °F
Dew Point 34 °F
Humidity 95%
Rainfall 0.00 in
Snow Depth Not available.
UV 0 out of 12
Pollen .10 out of 12
Air Quality Not available.
Flu Activity Not available.
METAR KCMX 221753Z AUTO 12006KT 3SM BR SCT008 OVC014 01/00 A2979

More Conditions Fewer Conditions

10-Day Weather Forecast

Almanac

Astronomy

Dec. 22, 2014 Rise Set
Actual Time
Civil Twilight
Nautical Twilight
Astronomical Twilight
Moon
Length of Visible Light
Length of Day
Tomorrow will be .
, % of the Moon is Illuminated

Today's Extremes

State Highs State Lows

Community

WunderPhotos

Upload Photos

1,779,687 photos uploaded!

WunderBlogs® & News

Nearby

Air Quality

  Air Quality AQ Index Pollutant
Not available.

Snow Depth

Station Depth Elevation

Earthquake Activity

City Distance Mag. Time & Date
Minimum magnitude displayed is 2.5.

Coastal Water Temperatures

Place Temperature

Nearby Weather Stations